»·PEaware :: UAL2210 KJAC-KDEN

UAL2210 :: KJAC-KDEN

FLIGHT INFORMATION

Flight Status: Arrived
Operator:
United Airlines
More flights by this operator :: More flights under this callsign
Pilot: Michael F. (26726)
Aircraft: BOEING 737-700
(B737)
More flights by this aircraft type
Origin: KJAC Jackson Hole
United States
Destination: KDEN Denver Intl
United States
More flights between these airports :: More routes between these airports
Route: ALPIN2 KICNE OCS RAMMS8
File this flight plan on PilotEdge
Remarks: RMK / SIMBRIEF
Altitude:
(Current/Filed)
39,000ft
Speed:
(Current/Filed)
439kts
Departed: 03-Apr-20 08:05 PM
Arrived: 03-Apr-20 09:03 PM
Distance/Time
Traveled:
352nm/0:57
Distance/Time
To Go:
Arrived

Flight Plot

Page will automatically refresh every two minutes.

Flight plan parsing failed; only flown route is shown


Map Options




Map Legend


Flown Route
Filed Route
Departure Airport
Arrival Airport
Navaid (VOR, NDB)
Fix

Horizontal Profiles

Position Reports

Time Latitude Longitude Heading Altitude Ground
Speed
03-Apr-20 19:43 43.603098 -110.737281 109 6459ft 0kts
03-Apr-20 19:44 43.603098 -110.737281 109 6459ft 0kts
03-Apr-20 19:45 43.603098 -110.737281 109 6459ft 0kts
03-Apr-20 19:46 43.603098 -110.737281 109 6459ft 0kts
03-Apr-20 19:47 43.603098 -110.737281 109 6459ft 0kts
03-Apr-20 19:48 43.603098 -110.737281 109 6459ft 0kts
03-Apr-20 19:49 43.603098 -110.737281 109 6459ft 0kts
03-Apr-20 19:50 43.603098 -110.737281 109 6459ft 0kts
03-Apr-20 19:51 43.603098 -110.737281 109 6459ft 0kts
03-Apr-20 19:52 43.603098 -110.737281 109 6459ft 0kts
03-Apr-20 19:53 43.603120 -110.737368 109 6459ft 2kts
03-Apr-20 19:54 43.603045 -110.738047 31 6459ft 0kts
03-Apr-20 19:55 43.603045 -110.738047 31 6459ft 0kts
03-Apr-20 19:56 43.603046 -110.738046 31 6459ft 0kts
03-Apr-20 19:58 43.603048 -110.738045 31 6459ft 0kts
03-Apr-20 19:59 43.603828 -110.737802 10 6459ft 6kts
03-Apr-20 20:00 43.605966 -110.736734 14 6459ft 5kts
03-Apr-20 20:01 43.608549 -110.735545 20 6459ft 9kts
03-Apr-20 20:02 43.613081 -110.733301 16 6459ft 24kts
03-Apr-20 20:03 43.613966 -110.732817 21 6459ft 2kts
03-Apr-20 20:04 43.615186 -110.733407 255 6459ft 13kts
03-Apr-20 20:05 43.601265 -110.740549 199 6567ft 131kts
03-Apr-20 20:06 43.565491 -110.763566 206 8177ft 178kts
03-Apr-20 20:07 43.513846 -110.800010 205 9708ft 238kts
03-Apr-20 20:08 43.446520 -110.840985 207 12270ft 287kts
03-Apr-20 20:09 43.364653 -110.893707 208 13912ft 360kts
03-Apr-20 20:10 43.270893 -110.954369 208 16709ft 383kts
03-Apr-20 20:11 43.163657 -110.941251 146 19293ft 434kts
03-Apr-20 20:12 43.078293 -110.817078 137 21620ft 456kts
03-Apr-20 20:13 42.984645 -110.696503 141 23622ft 469kts
03-Apr-20 20:14 42.887150 -110.574734 141 25360ft 483kts
03-Apr-20 20:15 42.786494 -110.450224 141 26917ft 492kts
03-Apr-20 20:15 42.701057 -110.345162 141 28081ft 499kts
03-Apr-20 20:17 42.581605 -110.198999 142 30192ft 493kts
03-Apr-20 20:18 42.479803 -110.075057 142 31716ft 492kts
03-Apr-20 20:18 42.394880 -109.972089 143 32934ft 490kts
03-Apr-20 20:19 42.292953 -109.849031 143 34112ft 492kts
03-Apr-20 20:21 42.173783 -109.705848 143 35440ft 491kts
03-Apr-20 20:21 42.088648 -109.604015 143 36317ft 490kts
03-Apr-20 20:22 41.986601 -109.482449 143 37259ft 490kts
03-Apr-20 20:23 41.884184 -109.360988 144 38094ft 490kts
03-Apr-20 20:24 41.782976 -109.240995 144 38982ft 487kts
03-Apr-20 20:25 41.680765 -109.121088 144 39008ft 487kts
03-Apr-20 20:26 41.587561 -108.988985 122 39008ft 502kts
03-Apr-20 20:27 41.543111 -108.810283 108 39009ft 509kts
03-Apr-20 20:28 41.503236 -108.629223 110 39012ft 510kts
03-Apr-20 20:29 41.462958 -108.447390 110 39014ft 510kts
03-Apr-20 20:30 41.422161 -108.266675 110 39017ft 510kts
03-Apr-20 20:31 41.380770 -108.085691 110 39020ft 510kts
03-Apr-20 20:32 41.339740 -107.907823 110 39022ft 511kts
03-Apr-20 20:33 41.297041 -107.724229 111 39025ft 511kts
03-Apr-20 20:34 41.254718 -107.543702 111 39026ft 511kts
03-Apr-20 20:35 41.212130 -107.363477 111 39033ft 511kts
03-Apr-20 20:36 41.169327 -107.183761 111 39038ft 511kts
03-Apr-20 20:37 41.126195 -107.004064 111 39038ft 511kts
03-Apr-20 20:38 41.082868 -106.824377 110 39038ft 511kts
03-Apr-20 20:39 41.039997 -106.647388 111 39036ft 510kts
03-Apr-20 20:40 40.995972 -106.468982 112 39039ft 510kts
03-Apr-20 20:41 40.952380 -106.293553 112 37541ft 498kts
03-Apr-20 20:42 40.908399 -106.116729 112 33915ft 509kts
03-Apr-20 20:43 40.863533 -105.939216 113 30595ft 511kts
03-Apr-20 20:44 40.819079 -105.760549 113 26760ft 513kts
03-Apr-20 20:45 40.773385 -105.583659 114 23229ft 498kts
03-Apr-20 20:46 40.696096 -105.448107 147 20050ft 439kts
03-Apr-20 20:47 40.601422 -105.351045 147 17419ft 421kts
03-Apr-20 20:48 40.509941 -105.255846 146 15674ft 400kts
03-Apr-20 20:49 40.446073 -105.150765 129 14683ft 338kts
03-Apr-20 20:50 40.395126 -105.055853 128 13266ft 304kts
03-Apr-20 20:51 40.337893 -104.977143 137 11617ft 293kts
03-Apr-20 20:52 40.282097 -104.909492 137 9927ft 252kts
03-Apr-20 20:53 40.232834 -104.854643 140 9157ft 195kts
03-Apr-20 20:54 40.190074 -104.820384 141 9067ft 177kts
03-Apr-20 20:55 40.147628 -104.784419 141 8832ft 185kts
03-Apr-20 20:56 40.101276 -104.757222 158 8513ft 172kts
03-Apr-20 20:57 40.062610 -104.739253 154 8161ft 162kts
03-Apr-20 20:58 40.021571 -104.713206 156 7755ft 155kts
03-Apr-20 20:59 39.981919 -104.697525 171 7051ft 159kts
03-Apr-20 21:00 39.936314 -104.695686 178 6292ft 166kts
03-Apr-20 21:01 39.889878 -104.696176 179 5439ft 155kts
03-Apr-20 21:02 39.875150 -104.694966 102 5439ft 8kts
03-Apr-20 21:03 39.871056 -104.694290 181 5439ft 17kts
03-Apr-20 21:04 39.865366 -104.694138 167 5439ft 21kts
03-Apr-20 21:05 39.860446 -104.689263 95 5439ft 17kts
03-Apr-20 21:06 39.860004 -104.682297 151 5439ft 11kts
03-Apr-20 21:07 39.856720 -104.680938 88 5439ft 11kts
03-Apr-20 21:08 39.857722 -104.676815 0 5439ft 8kts
03-Apr-20 21:09 39.858035 -104.676812 0 5439ft 0kts
03-Apr-20 21:10 39.858035 -104.676812 0 5439ft 0kts
03-Apr-20 21:11 39.858090 -104.676810 360 5439ft 0kts
03-Apr-20 21:12 39.858090 -104.676810 360 5439ft 0kts
03-Apr-20 21:13 39.858090 -104.676810 359 5439ft 0kts
03-Apr-20 21:14 39.858090 -104.676810 359 5439ft 0kts
03-Apr-20 21:15 39.858090 -104.676810 0 5439ft 0kts
03-Apr-20 21:16 39.858090 -104.676810 359 5439ft 0kts

Navigation Log

Ident Type
Flight plan parsing failed, navigation log unavailable